Time;durP1;ratioP1;P1;durP2;ratioP2;P2;SDS_P1;SDS_P2;PMS_P1;PMS_P2;Temp;Humidity;BMP_temperature;BMP_pressure;BME280_temperature;BME280_humidity;BME280_pressure;Samples;Min_cycle;Max_cycle;Signal;HPM_P1;HPM_P2
2023/06/02 00:01:00;;;;;;;22.67;14.15;;;18.40;99.90;;;;;;4897185;29;20028;-74
2023/06/02 00:03:31;;;;;;;20.83;13.35;;;18.40;99.90;;;;;;4896838;29;20044;-76
2023/06/02 00:06:01;;;;;;;28.70;14.77;;;18.40;99.90;;;;;;4897020;29;20029;-79
2023/06/02 00:08:27;;;;;;;20.30;12.73;;;18.40;99.90;;;;;;4897027;29;20028;-77
2023/06/02 00:10:54;;;;;;;18.45;11.32;;;18.40;99.90;;;;;;4896508;29;20072;-75
2023/06/02 00:13:20;;;;;;;18.23;11.60;;;18.40;99.90;;;;;;4897000;29;20020;-81
2023/06/02 00:15:46;;;;;;;20.40;12.43;;;18.30;99.90;;;;;;4896508;29;20564;-77
2023/06/02 00:18:13;;;;;;;19.83;11.40;;;18.30;99.90;;;;;;4891279;29;20021;-74
2023/06/02 00:20:39;;;;;;;21.23;10.93;;;18.30;99.90;;;;;;4893817;29;20040;-72
2023/06/02 00:23:08;;;;;;;18.60;9.88;;;18.40;99.90;;;;;;4897149;29;20035;-73
2023/06/02 00:25:39;;;;;;;15.73;9.65;;;18.30;99.90;;;;;;4896656;29;20040;-74
2023/06/02 00:28:05;;;;;;;17.30;10.40;;;18.30;99.90;;;;;;4899945;29;20400;-73
2023/06/02 00:30:31;;;;;;;16.27;9.20;;;18.30;99.90;;;;;;4883752;29;20180;-80
2023/06/02 00:32:57;;;;;;;15.52;8.93;;;18.30;99.90;;;;;;4900574;29;20159;-72
2023/06/02 00:35:24;;;;;;;14.93;9.93;;;18.30;99.90;;;;;;4900913;29;20025;-72
2023/06/02 00:37:51;;;;;;;16.85;9.52;;;18.40;99.90;;;;;;4900358;29;20043;-74
2023/06/02 00:40:17;;;;;;;17.40;10.65;;;18.40;99.90;;;;;;4900769;29;20025;-82
2023/06/02 00:42:43;;;;;;;13.82;8.85;;;18.50;99.90;;;;;;4883427;29;20380;-77
2023/06/02 00:45:09;;;;;;;14.82;9.10;;;18.50;99.90;;;;;;4899682;29;20115;-81
2023/06/02 00:47:35;;;;;;;16.27;9.90;;;18.50;99.90;;;;;;4900275;29;20044;-74
2023/06/02 00:50:01;;;;;;;16.38;9.20;;;18.50;99.90;;;;;;4883463;29;20036;-78
2023/06/02 00:52:28;;;;;;;15.50;8.77;;;18.50;99.90;;;;;;4900311;29;20473;-80
2023/06/02 00:54:55;;;;;;;30.98;21.65;;;18.50;99.90;;;;;;4883594;29;20077;-77
2023/06/02 00:57:21;;;;;;;28.30;16.42;;;18.50;99.90;;;;;;4883405;29;20064;-78
2023/06/02 00:59:47;;;;;;;23.55;14.07;;;18.50;99.90;;;;;;4900000;29;20496;-79
2023/06/02 01:02:13;;;;;;;35.25;21.20;;;18.50;99.90;;;;;;4900061;29;20060;-79
2023/06/02 01:04:41;;;;;;;37.53;25.50;;;18.40;99.90;;;;;;4882882;29;20119;-74
2023/06/02 01:07:08;;;;;;;40.15;27.38;;;18.50;99.90;;;;;;4868603;29;20491;-82
2023/06/02 01:09:35;;;;;;;39.70;26.17;;;18.50;99.90;;;;;;4900381;29;20028;-84
2023/06/02 01:12:02;;;;;;;27.75;16.70;;;18.50;99.90;;;;;;4890159;29;20124;-81
2023/06/02 01:14:28;;;;;;;22.60;14.10;;;18.50;99.90;;;;;;4897768;29;20041;-81
2023/06/02 01:16:54;;;;;;;20.63;11.95;;;18.50;99.90;;;;;;4883076;29;20497;-73
2023/06/02 01:19:21;;;;;;;21.55;11.75;;;18.50;99.90;;;;;;4899847;29;20025;-83
2023/06/02 01:21:57;;;;;;;18.67;11.65;;;18.50;99.90;;;;;;4899737;29;20527;-75
2023/06/02 01:24:35;;;;;;;17.50;12.30;;;18.40;99.90;;;;;;4899416;29;20025;-83
2023/06/02 01:27:09;;;;;;;17.23;11.90;;;18.40;99.90;;;;;;4883011;29;20409;-78
2023/06/02 01:29:37;;;;;;;20.15;11.63;;;18.40;99.90;;;;;;4885784;29;20032;-73
2023/06/02 01:32:18;;;;;;;19.35;12.18;;;18.40;99.90;;;;;;4882936;29;20051;-79
2023/06/02 01:34:50;;;;;;;19.27;11.70;;;18.40;99.90;;;;;;4899626;29;20461;-83
2023/06/02 01:37:19;;;;;;;18.83;11.15;;;18.40;99.90;;;;;;4898969;29;20036;-84
2023/06/02 01:39:46;;;;;;;17.63;11.05;;;18.40;99.90;;;;;;4896166;29;20091;-83
2023/06/02 01:42:15;;;;;;;16.35;10.70;;;18.30;99.90;;;;;;4898473;29;20132;-76
2023/06/02 01:44:42;;;;;;;20.70;12.20;;;18.30;99.90;;;;;;4882142;29;20040;-73
2023/06/02 01:47:10;;;;;;;21.25;11.68;;;18.30;99.90;;;;;;4882508;29;20468;-75
2023/06/02 01:49:35;;;;;;;17.73;12.50;;;18.30;99.90;;;;;;4882842;29;20021;-81
2023/06/02 01:52:02;;;;;;;17.45;11.40;;;18.20;99.90;;;;;;4894053;29;20044;-82
2023/06/02 01:54:28;;;;;;;20.33;14.15;;;18.20;99.90;;;;;;4899697;29;20025;-75
2023/06/02 01:56:54;;;;;;;20.27;12.50;;;18.20;99.90;;;;;;4882410;29;20037;-83
2023/06/02 01:59:20;;;;;;;18.52;12.40;;;18.00;99.90;;;;;;4882636;29;20048;-79
2023/06/02 02:01:47;;;;;;;23.77;12.13;;;18.00;99.90;;;;;;4892877;29;20119;-74
2023/06/02 02:04:13;;;;;;;18.83;12.75;;;17.90;99.90;;;;;;4899054;29;20049;-82
2023/06/02 02:06:39;;;;;;;21.77;13.52;;;17.90;99.90;;;;;;4903726;29;20032;-74
2023/06/02 02:09:09;;;;;;;19.10;12.30;;;17.90;99.90;;;;;;4899186;29;20028;-81
2023/06/02 02:11:35;;;;;;;21.13;11.98;;;18.00;99.90;;;;;;4899165;29;20083;-82
2023/06/02 02:14:04;;;;;;;18.48;11.45;;;17.90;99.90;;;;;;4899076;29;20080;-84
2023/06/02 02:16:30;;;;;;;16.00;11.02;;;17.90;99.90;;;;;;4897370;29;20029;-80
2023/06/02 02:18:58;;;;;;;19.00;10.15;;;18.00;99.90;;;;;;4888520;29;20035;-75
2023/06/02 02:21:25;;;;;;;22.90;12.25;;;18.00;99.90;;;;;;4881792;29;20052;-80
2023/06/02 02:23:51;;;;;;;19.92;13.45;;;18.00;99.90;;;;;;4898644;29;20031;-83
2023/06/02 02:26:18;;;;;;;19.15;12.27;;;17.90;99.90;;;;;;4898968;29;20117;-74
2023/06/02 02:28:45;;;;;;;20.08;12.43;;;17.90;99.90;;;;;;4898787;29;20025;-81
2023/06/02 02:31:11;;;;;;;21.63;12.77;;;17.90;99.90;;;;;;4897512;29;20040;-77
2023/06/02 02:33:38;;;;;;;19.73;13.02;;;17.90;99.90;;;;;;4881370;29;20388;-81
2023/06/02 02:36:04;;;;;;;23.80;14.38;;;17.90;99.90;;;;;;4881538;29;20765;-77
2023/06/02 02:38:31;;;;;;;20.33;13.07;;;18.00;99.90;;;;;;4897456;29;20020;-78
2023/06/02 02:40:57;;;;;;;19.67;11.43;;;18.00;99.90;;;;;;4904049;29;20043;-79
2023/06/02 02:43:23;;;;;;;20.13;12.63;;;18.00;99.90;;;;;;4898990;29;20354;-81
2023/06/02 02:45:51;;;;;;;17.17;11.75;;;18.10;99.90;;;;;;4881775;29;20388;-82
2023/06/02 02:48:17;;;;;;;18.15;12.25;;;18.20;99.90;;;;;;4881105;29;20115;-82
2023/06/02 02:50:43;;;;;;;22.73;12.73;;;18.20;99.90;;;;;;4889451;29;20441;-79
2023/06/02 02:53:11;;;;;;;21.58;12.93;;;18.20;99.90;;;;;;4881263;29;20031;-78
2023/06/02 02:55:38;;;;;;;27.75;15.25;;;18.20;99.90;;;;;;4884432;29;20568;-73
2023/06/02 02:58:04;;;;;;;37.05;16.63;;;18.00;99.90;;;;;;4880893;29;20032;-80
2023/06/02 03:00:31;;;;;;;26.45;15.95;;;18.00;99.90;;;;;;4881456;29;20035;-77
2023/06/02 03:03:01;;;;;;;27.98;16.30;;;18.00;99.90;;;;;;4883217;29;20500;-82
2023/06/02 03:05:27;;;;;;;23.08;15.95;;;18.00;99.90;;;;;;4881354;29;20028;-82
2023/06/02 03:07:54;;;;;;;26.75;18.38;;;18.00;99.90;;;;;;4890604;29;20477;-79
2023/06/02 03:10:20;;;;;;;25.65;15.68;;;18.00;99.90;;;;;;4881067;29;20437;-75
2023/06/02 03:12:48;;;;;;;24.23;14.98;;;18.00;99.90;;;;;;4880956;29;20044;-78
2023/06/02 03:15:15;;;;;;;24.75;14.98;;;18.00;99.90;;;;;;4879378;29;20029;-75
2023/06/02 03:17:41;;;;;;;22.60;14.30;;;18.10;99.90;;;;;;4882185;29;20041;-83
2023/06/02 03:20:09;;;;;;;22.58;15.20;;;18.10;99.90;;;;;;4891359;29;20061;-78
2023/06/02 03:22:37;;;;;;;21.35;11.80;;;18.20;99.90;;;;;;4907344;29;20124;-83
2023/06/02 03:25:05;;;;;;;22.55;13.15;;;18.10;99.90;;;;;;4896372;29;20035;-83
2023/06/02 03:27:32;;;;;;;20.30;12.95;;;18.10;99.90;;;;;;4881689;29;20032;-83
2023/06/02 03:33:58;;;;;;;22.05;11.98;;;18.10;99.90;;;;;;5162809;23;20659;-74
2023/06/02 03:36:26;;;;;;;19.52;11.65;;;18.10;99.90;;;;;;4874948;29;20072;-73
2023/06/02 03:38:53;;;;;;;20.92;11.98;;;18.10;99.90;;;;;;4877611;29;20063;-80
2023/06/02 03:41:19;;;;;;;22.33;12.70;;;17.90;99.90;;;;;;4877759;29;20033;-83
2023/06/02 03:43:45;;;;;;;18.73;11.02;;;18.00;99.90;;;;;;4875735;29;20160;-82
2023/06/02 03:46:11;;;;;;;19.85;11.57;;;17.90;99.90;;;;;;4879015;29;20036;-74
2023/06/02 03:48:36;;;;;;;20.02;12.10;;;18.40;99.90;;;;;;4877305;29;20052;-81
2023/06/02 03:51:03;;;;;;;18.00;11.05;;;18.60;99.90;;;;;;4862009;29;20064;-83
2023/06/02 03:53:33;;;;;;;17.63;10.95;;;18.70;99.90;;;;;;4876243;29;20857;-77
2023/06/02 03:55:59;;;;;;;22.83;11.38;;;18.70;99.90;;;;;;4876449;29;20891;-81
2023/06/02 03:58:25;;;;;;;20.73;11.82;;;18.70;99.90;;;;;;4876920;29;20420;-79
2023/06/02 04:00:54;;;;;;;25.67;12.35;;;18.40;99.90;;;;;;4873979;29;20069;-74
2023/06/02 04:03:22;;;;;;;21.65;11.13;;;18.20;99.90;;;;;;4883035;29;20120;-78
2023/06/02 04:05:49;;;;;;;17.92;10.88;;;18.20;99.90;;;;;;4889411;29;20560;-73
2023/06/02 04:08:16;;;;;;;19.52;11.40;;;18.10;99.90;;;;;;4877400;29;20085;-78
2023/06/02 04:10:43;;;;;;;18.15;11.07;;;18.20;99.90;;;;;;4874808;29;20040;-80
2023/06/02 04:13:09;;;;;;;17.75;9.98;;;18.30;99.90;;;;;;4877407;29;20505;-77
2023/06/02 04:15:36;;;;;;;18.45;10.07;;;18.40;99.90;;;;;;4876426;29;20029;-76
2023/06/02 04:18:03;;;;;;;17.88;10.40;;;18.50;99.90;;;;;;4878435;29;20401;-80
2023/06/02 04:20:30;;;;;;;19.73;12.15;;;18.50;99.90;;;;;;4876735;29;20049;-77
2023/06/02 04:22:57;;;;;;;21.38;10.95;;;18.60;99.90;;;;;;4878518;29;20112;-80
2023/06/02 04:25:23;;;;;;;27.80;11.70;;;18.60;99.90;;;;;;4876523;29;20085;-81
2023/06/02 04:27:49;;;;;;;20.27;12.73;;;18.70;99.90;;;;;;4877012;29;20029;-74
2023/06/02 04:30:15;;;;;;;24.92;16.05;;;18.80;99.90;;;;;;4878527;29;20816;-73
2023/06/02 04:32:42;;;;;;;22.40;14.75;;;18.80;99.90;;;;;;4878163;29;20047;-74
2023/06/02 04:35:10;;;;;;;23.83;14.93;;;18.90;99.90;;;;;;4876328;29;20104;-79
2023/06/02 04:37:37;;;;;;;24.25;14.57;;;19.00;99.90;;;;;;4877134;29;20093;-78
2023/06/02 04:40:06;;;;;;;25.25;14.02;;;19.00;99.90;;;;;;4876965;29;20028;-78
2023/06/02 04:42:32;;;;;;;24.38;13.30;;;19.10;99.90;;;;;;4876749;29;20041;-79
2023/06/02 04:45:00;;;;;;;30.10;15.80;;;19.10;99.90;;;;;;4876996;29;20029;-78
2023/06/02 04:47:27;;;;;;;22.58;14.57;;;19.10;99.90;;;;;;4877996;29;20417;-78
2023/06/02 04:49:54;;;;;;;20.88;13.68;;;19.10;99.90;;;;;;4876847;29;20025;-77
2023/06/02 04:52:20;;;;;;;31.92;15.73;;;19.20;99.90;;;;;;4876454;29;20048;-74
2023/06/02 04:54:48;;;;;;;23.88;15.18;;;19.20;99.90;;;;;;4861171;29;20027;-75
2023/06/02 04:57:15;;;;;;;27.15;16.23;;;19.20;99.90;;;;;;4876736;29;20139;-78
2023/06/02 04:59:42;;;;;;;23.05;15.10;;;19.20;99.90;;;;;;4876821;29;20124;-72
2023/06/02 05:02:07;;;;;;;25.65;16.13;;;19.30;99.90;;;;;;4878081;29;20116;-80
2023/06/02 05:04:34;;;;;;;22.75;15.63;;;19.30;99.90;;;;;;4876340;29;20705;-76
2023/06/02 05:07:03;;;;;;;22.88;15.32;;;19.30;99.90;;;;;;4876545;29;20081;-78
2023/06/02 05:09:29;;;;;;;26.15;15.98;;;19.40;99.90;;;;;;4876670;29;20021;-78
2023/06/02 05:11:56;;;;;;;28.25;14.98;;;19.50;99.90;;;;;;4876392;29;20111;-72
2023/06/02 05:14:23;;;;;;;26.98;16.35;;;19.50;99.90;;;;;;4881024;29;20021;-75
2023/06/02 05:16:49;;;;;;;26.92;14.70;;;19.50;99.90;;;;;;4879884;29;20029;-79
2023/06/02 05:19:16;;;;;;;26.00;16.95;;;19.60;99.90;;;;;;4880084;29;20033;-79
2023/06/02 05:21:42;;;;;;;26.90;17.17;;;19.70;99.90;;;;;;4880076;29;20391;-73
2023/06/02 05:24:08;;;;;;;26.67;16.95;;;19.70;99.90;;;;;;4880357;29;20057;-79
2023/06/02 05:26:34;;;;;;;23.33;17.48;;;19.80;99.90;;;;;;4879954;29;20108;-79
2023/06/02 05:29:01;;;;;;;27.33;17.17;;;19.80;99.90;;;;;;4880178;29;20025;-74
2023/06/02 05:31:27;;;;;;;29.52;16.38;;;19.80;99.90;;;;;;4880769;29;20366;-77
2023/06/02 05:33:55;;;;;;;29.73;18.10;;;19.90;99.90;;;;;;4879580;29;20081;-77
2023/06/02 05:36:21;;;;;;;25.10;16.75;;;19.90;99.90;;;;;;4879509;29;20060;-78
2023/06/02 05:38:47;;;;;;;27.83;17.25;;;20.10;99.90;;;;;;4879439;29;20041;-79
2023/06/02 05:41:13;;;;;;;25.40;17.05;;;20.00;99.90;;;;;;4879595;29;20045;-77
2023/06/02 05:43:39;;;;;;;25.90;17.27;;;20.20;99.90;;;;;;4879832;29;20396;-79
2023/06/02 05:46:06;;;;;;;27.42;16.92;;;20.30;99.90;;;;;;4879675;29;20367;-74
2023/06/02 05:48:31;;;;;;;26.95;18.38;;;20.50;99.90;;;;;;4879524;29;20177;-77
2023/06/02 05:50:57;;;;;;;30.27;16.90;;;20.50;99.90;;;;;;4880846;29;20033;-75
2023/06/02 05:53:23;;;;;;;22.33;15.02;;;20.70;99.90;;;;;;4879389;29;20496;-78
2023/06/02 05:55:49;;;;;;;21.40;15.40;;;20.90;99.90;;;;;;4880992;29;20029;-80
2023/06/02 05:58:17;;;;;;;23.63;15.98;;;21.00;99.90;;;;;;4879235;29;20113;-75
2023/06/02 06:00:43;;;;;;;21.42;15.30;;;21.00;99.90;;;;;;4880734;29;20553;-79
2023/06/02 06:03:09;;;;;;;24.83;15.63;;;21.10;99.90;;;;;;4880824;29;20072;-73
2023/06/02 06:05:38;;;;;;;24.98;16.40;;;21.10;99.90;;;;;;4878742;29;20469;-72
2023/06/02 06:08:04;;;;;;;23.10;15.95;;;21.20;99.90;;;;;;4880695;29;20071;-76
2023/06/02 06:10:30;;;;;;;23.25;16.00;;;21.30;99.90;;;;;;4878847;29;20053;-79
2023/06/02 06:12:58;;;;;;;22.38;15.65;;;21.20;99.90;;;;;;4879162;29;20043;-77
2023/06/02 06:15:24;;;;;;;23.10;16.05;;;21.40;99.90;;;;;;4880290;29;20100;-73
2023/06/02 06:17:52;;;;;;;23.90;16.67;;;21.50;99.90;;;;;;4880471;29;20033;-78
2023/06/02 06:20:19;;;;;;;22.38;16.27;;;21.70;99.90;;;;;;4863099;29;20525;-79
2023/06/02 06:22:45;;;;;;;25.08;16.90;;;21.70;99.90;;;;;;4878857;29;20485;-74
2023/06/02 06:25:12;;;;;;;23.08;16.27;;;21.70;99.90;;;;;;4878669;29;20021;-80
2023/06/02 06:27:39;;;;;;;22.75;16.02;;;21.70;99.90;;;;;;4878847;29;20037;-79
2023/06/02 06:30:09;;;;;;;22.85;15.27;;;21.80;99.90;;;;;;4878790;29;20064;-79
2023/06/02 06:32:36;;;;;;;29.55;14.93;;;21.80;99.90;;;;;;4878676;29;20516;-78
2023/06/02 06:35:02;;;;;;;22.35;14.77;;;21.90;99.90;;;;;;4878562;29;20403;-76
2023/06/02 06:37:28;;;;;;;25.05;15.35;;;22.40;99.90;;;;;;4870985;29;20029;-80
2023/06/02 06:39:55;;;;;;;19.90;14.48;;;22.50;99.90;;;;;;4878752;29;20080;-79
2023/06/02 06:42:24;;;;;;;23.88;15.57;;;22.80;99.90;;;;;;4879897;29;20025;-79
2023/06/02 06:45:06;;;;;;;22.27;15.63;;;22.90;99.90;;;;;;4876570;29;20029;-75
2023/06/02 06:47:32;;;;;;;23.02;14.02;;;23.00;99.90;;;;;;4881723;29;20032;-77
2023/06/02 06:49:58;;;;;;;22.92;13.93;;;23.00;99.90;;;;;;4879692;29;20031;-74
2023/06/02 06:52:24;;;;;;;22.65;14.55;;;23.20;99.90;;;;;;4880188;29;20049;-72
2023/06/02 06:54:50;;;;;;;22.67;14.75;;;23.00;99.90;;;;;;4862736;29;20040;-76
2023/06/02 06:57:18;;;;;;;21.85;13.93;;;23.60;99.90;;;;;;4879880;29;20037;-73
2023/06/02 06:59:46;;;;;;;20.60;13.70;;;23.80;99.90;;;;;;4879566;29;20021;-73
2023/06/02 07:02:12;;;;;;;22.90;14.73;;;24.30;99.90;;;;;;4879722;29;20057;-72
2023/06/02 07:04:38;;;;;;;21.35;14.55;;;24.60;99.90;;;;;;4879246;29;20452;-73
2023/06/02 07:07:05;;;;;;;22.85;15.80;;;24.60;99.90;;;;;;4879149;29;20144;-78
2023/06/02 07:09:31;;;;;;;20.02;14.50;;;25.10;99.90;;;;;;4879483;29;20021;-79
2023/06/02 07:11:57;;;;;;;22.38;14.85;;;25.20;99.90;;;;;;4879239;29;20041;-76
2023/06/02 07:14:23;;;;;;;22.40;13.93;;;25.10;99.90;;;;;;4879582;29;20039;-74
2023/06/02 07:16:53;;;;;;;23.55;14.40;;;25.50;99.90;;;;;;4879195;29;20036;-79
2023/06/02 07:19:22;;;;;;;21.45;14.85;;;25.60;99.90;;;;;;4879183;29;20096;-72
2023/06/02 07:21:48;;;;;;;19.88;13.25;;;25.20;99.90;;;;;;4879324;29;20036;-73
2023/06/02 07:24:13;;;;;;;20.30;14.35;;;25.30;99.90;;;;;;4879107;29;20025;-77
2023/06/02 07:26:41;;;;;;;17.45;13.32;;;25.20;99.90;;;;;;4879407;29;20112;-73
2023/06/02 07:29:07;;;;;;;22.35;14.38;;;25.40;99.90;;;;;;4878917;29;20584;-73
2023/06/02 07:31:32;;;;;;;18.02;13.73;;;25.60;99.90;;;;;;4879187;29;20041;-76
2023/06/02 07:33:58;;;;;;;20.58;13.95;;;25.60;99.90;;;;;;4878791;29;20041;-80
2023/06/02 07:36:24;;;;;;;18.17;13.80;;;25.70;99.90;;;;;;4875562;29;20051;-77
2023/06/02 07:38:50;;;;;;;18.92;13.40;;;25.70;99.90;;;;;;4878201;29;20029;-78
2023/06/02 07:41:17;;;;;;;20.52;14.73;;;25.70;99.90;;;;;;4879218;29;20082;-76
2023/06/02 07:43:43;;;;;;;21.48;13.48;;;25.70;99.90;;;;;;4879161;29;20037;-78
2023/06/02 07:46:08;;;;;;;20.27;14.80;;;25.80;99.90;;;;;;4878258;29;20028;-74
2023/06/02 07:48:35;;;;;;;19.17;14.48;;;25.90;99.90;;;;;;4878867;29;20057;-76
2023/06/02 07:51:00;;;;;;;22.90;15.23;;;25.90;99.90;;;;;;4878328;29;20124;-75
2023/06/02 07:53:26;;;;;;;20.15;13.90;;;26.00;99.90;;;;;;4878701;29;20031;-77
2023/06/02 07:55:52;;;;;;;18.42;14.07;;;25.90;99.90;;;;;;4878482;29;20378;-76
2023/06/02 07:58:18;;;;;;;20.40;13.80;;;26.30;99.90;;;;;;4878521;29;20044;-73
2023/06/02 08:00:43;;;;;;;19.50;14.20;;;26.20;99.90;;;;;;4878405;29;20549;-73
2023/06/02 08:03:09;;;;;;;19.27;13.23;;;25.80;99.90;;;;;;4878131;29;20485;-73
2023/06/02 08:05:35;;;;;;;18.48;14.07;;;25.50;99.90;;;;;;4877682;29;20045;-76
2023/06/02 08:08:02;;;;;;;22.15;14.65;;;25.40;99.90;;;;;;4877520;29;20429;-74
2023/06/02 08:10:28;;;;;;;21.38;14.13;;;25.70;99.90;;;;;;4877905;29;20056;-73
2023/06/02 08:12:54;;;;;;;20.95;14.93;;;26.00;99.90;;;;;;4878451;29;20056;-73
2023/06/02 08:15:20;;;;;;;20.50;14.07;;;26.00;99.90;;;;;;4878477;29;20057;-73
2023/06/02 08:17:46;;;;;;;19.63;13.57;;;25.80;99.90;;;;;;4877331;29;20045;-74
2023/06/02 08:20:12;;;;;;;21.58;15.10;;;26.10;99.90;;;;;;4878163;29;20028;-78
2023/06/02 08:22:40;;;;;;;19.73;15.00;;;26.20;99.90;;;;;;4878070;29;20382;-77
2023/06/02 08:25:07;;;;;;;21.52;14.05;;;26.60;99.90;;;;;;4875801;29;20476;-77
2023/06/02 08:27:33;;;;;;;21.35;14.35;;;26.70;99.90;;;;;;4876816;29;20384;-73
2023/06/02 08:29:59;;;;;;;19.63;14.82;;;27.10;99.90;;;;;;4877905;29;20107;-73
2023/06/02 08:32:26;;;;;;;23.63;14.27;;;27.50;99.90;;;;;;4877477;29;20083;-74
2023/06/02 08:34:51;;;;;;;20.25;14.57;;;27.60;99.90;;;;;;4877386;29;20073;-77
2023/06/02 08:37:18;;;;;;;20.55;16.00;;;27.60;99.90;;;;;;4877256;29;20088;-74
2023/06/02 08:39:44;;;;;;;20.88;15.15;;;27.50;99.90;;;;;;4877601;29;20052;-76
2023/06/02 08:42:11;;;;;;;20.83;15.60;;;27.10;99.90;;;;;;4878346;29;20068;-76
2023/06/02 08:44:38;;;;;;;22.00;15.77;;;26.70;99.90;;;;;;4877971;29;20021;-74
2023/06/02 08:47:09;;;;;;;21.77;15.50;;;26.60;99.90;;;;;;4878047;29;20188;-74
2023/06/02 08:49:36;;;;;;;23.58;16.05;;;26.40;99.90;;;;;;4880702;29;20045;-77
2023/06/02 08:52:23;;;;;;;20.73;15.68;;;26.50;99.90;;;;;;4881696;29;20049;-74
2023/06/02 08:54:50;;;;;;;20.65;16.27;;;26.20;99.90;;;;;;4881917;29;20112;-74
2023/06/02 08:57:16;;;;;;;21.80;15.23;;;26.10;99.90;;;;;;4881564;29;20540;-76
2023/06/02 08:59:43;;;;;;;22.98;17.80;;;26.40;99.90;;;;;;4881506;29;20032;-77
2023/06/02 09:02:10;;;;;;;22.63;16.25;;;26.30;99.90;;;;;;4881185;29;20080;-77
2023/06/02 09:04:36;;;;;;;23.83;16.13;;;26.30;99.90;;;;;;4881632;29;20033;-74
2023/06/02 09:07:13;;;;;;;21.65;16.98;;;26.40;99.90;;;;;;4880950;29;20347;-74
2023/06/02 09:09:51;;;;;;;27.77;16.45;;;26.60;99.90;;;;;;4881493;29;20037;-75
2023/06/02 09:12:18;;;;;;;20.85;15.13;;;26.90;99.90;;;;;;4881303;29;20450;-75
2023/06/02 09:14:47;;;;;;;19.30;14.90;;;27.00;99.90;;;;;;4881330;29;20073;-75
2023/06/02 09:17:27;;;;;;;21.30;15.07;;;26.70;99.90;;;;;;4881089;29;20491;-78
2023/06/02 09:19:56;;;;;;;21.02;16.00;;;26.70;99.90;;;;;;4881079;29;20025;-75
2023/06/02 09:22:22;;;;;;;19.90;15.45;;;26.50;99.90;;;;;;4880770;29;20044;-74
2023/06/02 09:24:48;;;;;;;23.77;16.52;;;26.20;99.90;;;;;;4881223;29;20037;-75
2023/06/02 09:27:15;;;;;;;21.40;16.67;;;26.20;99.90;;;;;;4880912;29;20093;-74
2023/06/02 09:29:42;;;;;;;18.90;14.93;;;26.20;99.90;;;;;;4880861;29;20033;-74
2023/06/02 09:32:18;;;;;;;22.25;16.35;;;26.10;99.90;;;;;;4879923;29;20033;-73
2023/06/02 09:34:45;;;;;;;23.92;15.77;;;26.20;99.90;;;;;;4880618;29;20056;-76
2023/06/02 09:37:15;;;;;;;18.77;14.55;;;26.20;99.90;;;;;;4880743;29;20033;-73
2023/06/02 09:39:49;;;;;;;20.25;15.82;;;26.60;99.90;;;;;;4880603;29;20041;-77
2023/06/02 09:42:17;;;;;;;21.58;14.73;;;26.80;99.90;;;;;;4880457;29;20029;-73
2023/06/02 09:45:05;;;;;;;17.25;13.23;;;26.90;99.90;;;;;;4880534;29;20413;-77
2023/06/02 09:47:47;;;;;;;16.83;12.50;;;27.20;99.90;;;;;;4880695;29;20041;-74
2023/06/02 09:50:33;;;;;;;18.55;14.57;;;27.00;99.90;;;;;;4872132;29;20465;-73
2023/06/02 09:53:03;;;;;;;18.60;14.25;;;27.00;99.90;;;;;;4880069;29;20108;-73
2023/06/02 09:55:31;;;;;;;19.95;14.57;;;26.80;99.90;;;;;;4882023;29;20048;-75
2023/06/02 09:57:58;;;;;;;20.95;15.40;;;26.80;99.90;;;;;;4870934;29;20112;-76
2023/06/02 10:00:24;;;;;;;19.17;13.50;;;26.50;99.90;;;;;;4879871;29;20044;-75
2023/06/02 10:02:51;;;;;;;16.20;13.45;;;26.20;99.90;;;;;;4879820;29;20033;-76
2023/06/02 10:05:22;;;;;;;17.67;14.27;;;26.00;99.90;;;;;;4879626;29;20475;-76
2023/06/02 10:07:56;;;;;;;19.60;14.85;;;26.20;99.90;;;;;;4873330;29;20029;-75
2023/06/02 10:10:59;;;;;;;24.63;14.27;;;26.40;99.90;;;;;;4880174;29;20056;-73
2023/06/02 10:13:33;;;;;;;19.88;14.07;;;26.10;99.90;;;;;;4878588;29;20048;-80
2023/06/02 10:16:14;;;;;;;24.35;13.98;;;26.20;99.90;;;;;;4873954;29;20044;-75
2023/06/02 10:18:46;;;;;;;18.00;14.60;;;26.50;99.90;;;;;;4878095;29;20073;-75
2023/06/02 10:21:17;;;;;;;20.42;14.65;;;26.50;99.90;;;;;;4879661;29;20100;-76
2023/06/02 10:24:06;;;;;;;44.92;16.48;;;26.10;99.90;;;;;;4879322;29;20071;-75
2023/06/02 10:26:41;;;;;;;16.20;12.60;;;26.50;99.90;;;;;;4880089;29;20466;-73
2023/06/02 10:29:08;;;;;;;19.77;12.50;;;26.80;99.90;;;;;;4880157;29;20029;-78
2023/06/02 10:31:34;;;;;;;31.65;14.73;;;26.80;99.90;;;;;;4878962;29;20033;-72
2023/06/02 10:34:04;;;;;;;17.42;13.43;;;26.80;99.90;;;;;;4879926;29;20037;-72
2023/06/02 10:37:00;;;;;;;18.38;11.90;;;26.60;99.90;;;;;;4879365;29;20375;-76
2023/06/02 10:39:44;;;;;;;27.20;12.05;;;26.80;99.90;;;;;;4879512;29;20032;-78
2023/06/02 10:42:14;;;;;;;36.55;11.48;;;26.80;99.90;;;;;;4880043;29;20069;-74
2023/06/02 10:44:41;;;;;;;14.20;10.18;;;26.60;99.90;;;;;;4879863;29;20035;-74
2023/06/02 10:47:18;;;;;;;15.57;10.02;;;26.50;99.90;;;;;;4879830;29;20033;-77
2023/06/02 10:49:54;;;;;;;15.43;10.63;;;26.90;99.90;;;;;;4878727;29;20037;-73
2023/06/02 10:52:21;;;;;;;14.18;9.15;;;27.00;99.90;;;;;;4879381;29;20045;-78
2023/06/02 10:55:12;;;;;;;12.05;8.55;;;26.90;99.90;;;;;;4879299;29;20040;-74
2023/06/02 10:57:54;;;;;;;15.27;9.40;;;26.90;99.90;;;;;;4874843;29;20088;-73
2023/06/02 11:00:44;;;;;;;16.70;11.52;;;26.80;99.90;;;;;;4879463;29;20036;-72
2023/06/02 11:03:22;;;;;;;16.88;12.52;;;26.60;99.90;;;;;;4879291;29;20489;-73
2023/06/02 11:05:54;;;;;;;18.02;12.90;;;26.50;99.90;;;;;;4879133;29;20029;-75
2023/06/02 11:08:23;;;;;;;17.38;11.85;;;26.30;99.90;;;;;;4878750;29;20040;-76
2023/06/02 11:10:55;;;;;;;17.17;12.38;;;26.40;99.90;;;;;;4878717;29;20029;-78
2023/06/02 11:13:26;;;;;;;15.23;11.77;;;26.40;99.90;;;;;;4879568;29;20537;-73
2023/06/02 11:15:58;;;;;;;17.90;13.07;;;26.50;99.90;;;;;;4878976;29;20370;-75
2023/06/02 11:18:32;;;;;;;17.60;12.55;;;26.20;99.90;;;;;;4879706;29;20044;-74
2023/06/02 11:21:14;;;;;;;16.17;12.63;;;26.10;99.90;;;;;;4876467;29;20572;-72
2023/06/02 11:23:43;;;;;;;;;;;26.30;99.90;;;;;;4879235;29;20104;-73
2023/06/02 11:26:13;;;;;;;16.60;12.70;;;26.30;99.90;;;;;;4878983;29;19908;-76
2023/06/02 11:28:39;;;;;;;22.77;13.90;;;26.50;99.90;;;;;;4877399;29;20037;-72
2023/06/02 11:31:16;;;;;;;16.83;13.07;;;26.80;99.90;;;;;;4877643;29;20036;-72
2023/06/02 11:33:50;;;;;;;17.92;13.60;;;26.70;99.90;;;;;;4874315;29;20104;-72
2023/06/02 11:36:26;;;;;;;15.40;11.77;;;26.80;99.90;;;;;;4874305;29;20068;-73
2023/06/02 11:39:02;;;;;;;14.68;11.18;;;26.90;99.90;;;;;;4876557;29;20431;-72
2023/06/02 11:41:28;;;;;;;14.43;11.15;;;27.20;99.90;;;;;;4877065;29;20471;-72
2023/06/02 11:44:04;;;;;;;14.25;10.50;;;27.20;99.90;;;;;;4879129;29;20032;-73
2023/06/02 11:46:30;;;;;;;15.07;10.23;;;27.10;99.90;;;;;;4878865;29;20025;-75
2023/06/02 11:48:56;;;;;;;14.23;10.88;;;27.00;99.90;;;;;;4878666;29;20108;-72
2023/06/02 11:51:23;;;;;;;15.70;11.05;;;26.90;99.90;;;;;;4862049;29;20517;-75
2023/06/02 11:54:03;;;;;;;15.93;11.15;;;26.80;99.90;;;;;;4878713;29;20104;-78
2023/06/02 11:56:30;;;;;;;17.85;14.38;;;26.60;99.90;;;;;;4878763;29;20037;-72
2023/06/02 11:58:56;;;;;;;19.60;15.95;;;26.90;99.90;;;;;;4878241;29;20508;-73
2023/06/02 12:01:21;;;;;;;21.30;15.93;;;26.60;99.90;;;;;;4878484;29;20068;-79
2023/06/02 12:03:53;;;;;;;21.45;17.48;;;26.60;99.90;;;;;;4878705;29;20119;-73
2023/06/02 12:06:19;;;;;;;;;;;26.60;99.90;;;;;;4878710;29;20073;-73
2023/06/02 12:08:46;;;;;;;18.92;16.65;;;26.60;99.90;;;;;;4878347;29;20018;-79
2023/06/02 12:11:21;;;;;;;22.45;18.23;;;26.70;99.90;;;;;;4878053;29;20036;-73
2023/06/02 12:13:57;;;;;;;20.52;18.33;;;26.70;99.90;;;;;;4878187;29;20044;-75
2023/06/02 12:16:24;;;;;;;21.48;18.95;;;26.90;99.90;;;;;;4878626;29;20036;-73
2023/06/02 12:18:50;;;;;;;21.30;18.27;;;26.70;99.90;;;;;;4878126;29;20056;-76
2023/06/02 12:21:23;;;;;;;21.38;19.17;;;26.80;99.90;;;;;;4878363;29;20397;-73
2023/06/02 12:23:49;;;;;;;20.50;17.60;;;26.70;99.90;;;;;;4877829;29;20028;-78
2023/06/02 12:26:16;;;;;;;22.33;19.45;;;26.90;99.90;;;;;;4878275;29;20029;-74
2023/06/02 12:28:41;;;;;;;21.60;18.15;;;27.00;99.90;;;;;;4878187;29;20143;-77
2023/06/02 12:31:08;;;;;;;21.90;19.58;;;27.20;99.90;;;;;;4878406;29;20494;-74
2023/06/02 12:33:34;;;;;;;22.67;18.70;;;27.20;99.90;;;;;;4861498;29;20478;-73
2023/06/02 12:36:00;;;;;;;20.67;18.48;;;27.30;99.90;;;;;;4877746;29;20056;-73
2023/06/02 12:38:27;;;;;;;21.95;19.30;;;27.10;99.90;;;;;;4878532;29;20510;-76